sensor_id;sensor_type;location;lat;lon;timestamp;P1;durP1;ratioP1;P2;durP2;ratioP2
66421;SDS011;53228;51.380;0.098;2022-09-01T00:00:13;7.97;;;1.50;;
66421;SDS011;53228;51.380;0.098;2022-09-01T00:02:42;4.68;;;1.52;;
66421;SDS011;53228;51.380;0.098;2022-09-01T00:05:11;3.00;;;1.02;;
66421;SDS011;53228;51.380;0.098;2022-09-01T00:07:38;4.93;;;1.33;;
66421;SDS011;53228;51.380;0.098;2022-09-01T00:10:07;5.20;;;1.00;;
66421;SDS011;53228;51.380;0.098;2022-09-01T00:12:36;6.55;;;1.35;;
66421;SDS011;53228;51.380;0.098;2022-09-01T00:15:06;3.53;;;1.25;;
66421;SDS011;53228;51.380;0.098;2022-09-01T00:17:36;3.92;;;1.52;;
66421;SDS011;53228;51.380;0.098;2022-09-01T00:20:04;5.65;;;1.63;;
66421;SDS011;53228;51.380;0.098;2022-09-01T00:22:33;5.38;;;1.10;;
66421;SDS011;53228;51.380;0.098;2022-09-01T00:25:02;6.97;;;1.60;;
66421;SDS011;53228;51.380;0.098;2022-09-01T00:27:30;4.03;;;1.60;;
66421;SDS011;53228;51.380;0.098;2022-09-01T00:29:58;4.43;;;1.27;;
66421;SDS011;53228;51.380;0.098;2022-09-01T00:32:27;8.45;;;1.70;;
66421;SDS011;53228;51.380;0.098;2022-09-01T00:34:55;2.42;;;1.25;;
66421;SDS011;53228;51.380;0.098;2022-09-01T00:37:23;5.80;;;1.30;;
66421;SDS011;53228;51.380;0.098;2022-09-01T00:39:51;5.55;;;1.35;;
66421;SDS011;53228;51.380;0.098;2022-09-01T00:42:19;10.38;;;1.90;;
66421;SDS011;53228;51.380;0.098;2022-09-01T00:44:47;7.47;;;1.50;;
66421;SDS011;53228;51.380;0.098;2022-09-01T00:47:15;2.03;;;1.08;;
66421;SDS011;53228;51.380;0.098;2022-09-01T00:49:47;3.67;;;1.25;;
66421;SDS011;53228;51.380;0.098;2022-09-01T00:54:48;2.38;;;1.17;;
66421;SDS011;53228;51.380;0.098;2022-09-01T00:57:19;6.72;;;1.67;;
66421;SDS011;53228;51.380;0.098;2022-09-01T00:59:49;10.10;;;1.42;;
66421;SDS011;53228;51.380;0.098;2022-09-01T01:02:21;9.60;;;1.67;;
66421;SDS011;53228;51.380;0.098;2022-09-01T01:04:49;4.00;;;1.40;;
66421;SDS011;53228;51.380;0.098;2022-09-01T01:07:19;3.25;;;1.25;;
66421;SDS011;53228;51.380;0.098;2022-09-01T01:12:17;11.73;;;1.30;;
66421;SDS011;53228;51.380;0.098;2022-09-01T01:14:45;6.20;;;1.25;;
66421;SDS011;53228;51.380;0.098;2022-09-01T01:17:17;3.90;;;1.40;;
66421;SDS011;53228;51.380;0.098;2022-09-01T01:25:34;6.53;;;1.60;;
66421;SDS011;53228;51.380;0.098;2022-09-01T01:28:34;7.95;;;1.83;;
66421;SDS011;53228;51.380;0.098;2022-09-01T01:36:10;2.80;;;1.00;;
66421;SDS011;53228;51.380;0.098;2022-09-01T01:38:45;7.22;;;1.58;;
66421;SDS011;53228;51.380;0.098;2022-09-01T01:41:16;3.22;;;1.30;;
66421;SDS011;53228;51.380;0.098;2022-09-01T01:43:48;7.75;;;2.58;;
66421;SDS011;53228;51.380;0.098;2022-09-01T01:46:18;5.72;;;1.20;;
66421;SDS011;53228;51.380;0.098;2022-09-01T01:48:48;5.65;;;1.60;;
66421;SDS011;53228;51.380;0.098;2022-09-01T01:51:20;4.45;;;1.15;;
66421;SDS011;53228;51.380;0.098;2022-09-01T01:53:53;8.88;;;1.40;;
66421;SDS011;53228;51.380;0.098;2022-09-01T01:56:22;2.30;;;1.20;;
66421;SDS011;53228;51.380;0.098;2022-09-01T01:58:52;3.90;;;1.17;;
66421;SDS011;53228;51.380;0.098;2022-09-01T02:01:23;5.03;;;1.80;;
66421;SDS011;53228;51.380;0.098;2022-09-01T02:03:55;4.53;;;1.25;;
66421;SDS011;53228;51.380;0.098;2022-09-01T02:06:26;6.82;;;1.27;;
66421;SDS011;53228;51.380;0.098;2022-09-01T02:08:57;4.22;;;1.85;;
66421;SDS011;53228;51.380;0.098;2022-09-01T02:11:29;3.50;;;1.33;;
66421;SDS011;53228;51.380;0.098;2022-09-01T02:14:00;5.75;;;1.40;;
66421;SDS011;53228;51.380;0.098;2022-09-01T02:16:29;5.03;;;1.65;;
66421;SDS011;53228;51.380;0.098;2022-09-01T02:19:00;6.88;;;1.30;;
66421;SDS011;53228;51.380;0.098;2022-09-01T02:21:30;6.28;;;1.50;;
66421;SDS011;53228;51.380;0.098;2022-09-01T02:23:59;7.72;;;1.75;;
66421;SDS011;53228;51.380;0.098;2022-09-01T02:26:38;5.03;;;1.10;;
66421;SDS011;53228;51.380;0.098;2022-09-01T02:29:10;4.22;;;1.63;;
66421;SDS011;53228;51.380;0.098;2022-09-01T02:31:52;6.53;;;1.75;;
66421;SDS011;53228;51.380;0.098;2022-09-01T02:34:21;7.80;;;2.03;;
66421;SDS011;53228;51.380;0.098;2022-09-01T02:36:53;10.00;;;1.85;;
66421;SDS011;53228;51.380;0.098;2022-09-01T02:39:25;6.93;;;1.38;;
66421;SDS011;53228;51.380;0.098;2022-09-01T02:41:54;6.05;;;1.42;;
66421;SDS011;53228;51.380;0.098;2022-09-01T02:44:25;6.97;;;1.65;;
66421;SDS011;53228;51.380;0.098;2022-09-01T02:46:53;8.82;;;1.90;;
66421;SDS011;53228;51.380;0.098;2022-09-01T02:49:23;10.23;;;3.47;;
66421;SDS011;53228;51.380;0.098;2022-09-01T02:51:56;8.10;;;1.83;;
66421;SDS011;53228;51.380;0.098;2022-09-01T02:54:30;5.65;;;1.70;;
66421;SDS011;53228;51.380;0.098;2022-09-01T02:56:59;5.18;;;2.33;;
66421;SDS011;53228;51.380;0.098;2022-09-01T02:59:27;8.45;;;1.88;;
66421;SDS011;53228;51.380;0.098;2022-09-01T03:01:59;10.25;;;1.98;;
66421;SDS011;53228;51.380;0.098;2022-09-01T03:04:27;4.55;;;1.50;;
66421;SDS011;53228;51.380;0.098;2022-09-01T03:06:56;8.00;;;1.63;;
66421;SDS011;53228;51.380;0.098;2022-09-01T03:09:25;5.40;;;1.45;;
66421;SDS011;53228;51.380;0.098;2022-09-01T03:11:54;11.73;;;2.33;;
66421;SDS011;53228;51.380;0.098;2022-09-01T03:14:23;8.18;;;1.70;;
66421;SDS011;53228;51.380;0.098;2022-09-01T03:16:53;7.10;;;1.52;;
66421;SDS011;53228;51.380;0.098;2022-09-01T03:19:21;7.88;;;1.60;;
66421;SDS011;53228;51.380;0.098;2022-09-01T03:21:48;8.25;;;1.67;;
66421;SDS011;53228;51.380;0.098;2022-09-01T03:24:20;10.10;;;2.08;;
66421;SDS011;53228;51.380;0.098;2022-09-01T03:26:50;10.48;;;1.63;;
66421;SDS011;53228;51.380;0.098;2022-09-01T03:29:19;8.00;;;1.58;;
66421;SDS011;53228;51.380;0.098;2022-09-01T03:31:46;4.88;;;1.63;;
66421;SDS011;53228;51.380;0.098;2022-09-01T03:34:15;10.98;;;2.03;;
66421;SDS011;53228;51.380;0.098;2022-09-01T03:36:49;7.30;;;1.55;;
66421;SDS011;53228;51.380;0.098;2022-09-01T03:39:24;12.00;;;2.33;;
66421;SDS011;53228;51.380;0.098;2022-09-01T03:41:52;4.68;;;2.00;;
66421;SDS011;53228;51.380;0.098;2022-09-01T03:44:21;11.00;;;2.33;;
66421;SDS011;53228;51.380;0.098;2022-09-01T03:46:49;6.75;;;2.00;;
66421;SDS011;53228;51.380;0.098;2022-09-01T03:49:18;10.95;;;1.67;;
66421;SDS011;53228;51.380;0.098;2022-09-01T03:51:51;7.53;;;1.65;;
66421;SDS011;53228;51.380;0.098;2022-09-01T03:54:23;7.13;;;1.80;;
66421;SDS011;53228;51.380;0.098;2022-09-01T03:56:56;12.27;;;2.40;;
66421;SDS011;53228;51.380;0.098;2022-09-01T03:59:26;10.38;;;1.95;;
66421;SDS011;53228;51.380;0.098;2022-09-01T04:01:56;16.05;;;2.30;;
66421;SDS011;53228;51.380;0.098;2022-09-01T04:04:25;8.70;;;2.13;;
66421;SDS011;53228;51.380;0.098;2022-09-01T04:06:53;7.90;;;2.03;;
66421;SDS011;53228;51.380;0.098;2022-09-01T04:09:22;9.30;;;1.73;;
66421;SDS011;53228;51.380;0.098;2022-09-01T04:11:50;8.65;;;2.00;;
66421;SDS011;53228;51.380;0.098;2022-09-01T04:14:20;9.70;;;2.33;;
66421;SDS011;53228;51.380;0.098;2022-09-01T04:16:48;11.68;;;1.90;;
66421;SDS011;53228;51.380;0.098;2022-09-01T04:19:35;7.35;;;2.70;;
66421;SDS011;53228;51.380;0.098;2022-09-01T04:22:08;6.25;;;1.80;;
66421;SDS011;53228;51.380;0.098;2022-09-01T04:24:41;8.55;;;2.17;;
66421;SDS011;53228;51.380;0.098;2022-09-01T04:27:12;9.48;;;2.10;;
66421;SDS011;53228;51.380;0.098;2022-09-01T04:29:41;6.70;;;1.83;;
66421;SDS011;53228;51.380;0.098;2022-09-01T04:32:12;11.00;;;2.00;;
66421;SDS011;53228;51.380;0.098;2022-09-01T04:34:47;10.73;;;1.88;;
66421;SDS011;53228;51.380;0.098;2022-09-01T04:37:16;4.93;;;1.92;;
66421;SDS011;53228;51.380;0.098;2022-09-01T04:39:56;9.77;;;1.88;;
66421;SDS011;53228;51.380;0.098;2022-09-01T04:42:26;10.65;;;2.17;;
66421;SDS011;53228;51.380;0.098;2022-09-01T04:44:58;8.80;;;2.35;;
66421;SDS011;53228;51.380;0.098;2022-09-01T04:47:36;11.20;;;1.90;;
66421;SDS011;53228;51.380;0.098;2022-09-01T04:50:10;9.60;;;2.28;;
66421;SDS011;53228;51.380;0.098;2022-09-01T04:53:04;5.78;;;2.00;;
66421;SDS011;53228;51.380;0.098;2022-09-01T04:55:39;3.38;;;1.65;;
66421;SDS011;53228;51.380;0.098;2022-09-01T04:58:11;10.48;;;2.58;;
66421;SDS011;53228;51.380;0.098;2022-09-01T05:00:44;6.88;;;2.00;;
66421;SDS011;53228;51.380;0.098;2022-09-01T05:03:19;12.38;;;1.85;;
66421;SDS011;53228;51.380;0.098;2022-09-01T05:05:56;8.07;;;2.28;;
66421;SDS011;53228;51.380;0.098;2022-09-01T05:08:27;7.82;;;2.00;;
66421;SDS011;53228;51.380;0.098;2022-09-01T05:11:02;10.20;;;2.58;;
66421;SDS011;53228;51.380;0.098;2022-09-01T05:13:39;5.82;;;1.88;;
66421;SDS011;53228;51.380;0.098;2022-09-01T05:16:08;7.15;;;1.92;;
66421;SDS011;53228;51.380;0.098;2022-09-01T05:18:41;8.30;;;2.30;;
66421;SDS011;53228;51.380;0.098;2022-09-01T05:21:15;4.85;;;1.48;;
66421;SDS011;53228;51.380;0.098;2022-09-01T05:23:45;4.05;;;1.88;;
66421;SDS011;53228;51.380;0.098;2022-09-01T05:26:18;7.07;;;1.80;;
66421;SDS011;53228;51.380;0.098;2022-09-01T05:28:50;9.70;;;1.75;;
66421;SDS011;53228;51.380;0.098;2022-09-01T05:31:21;6.00;;;1.90;;
66421;SDS011;53228;51.380;0.098;2022-09-01T05:33:53;11.13;;;2.05;;
66421;SDS011;53228;51.380;0.098;2022-09-01T05:36:24;9.52;;;3.80;;
66421;SDS011;53228;51.380;0.098;2022-09-01T05:38:54;5.35;;;2.03;;
66421;SDS011;53228;51.380;0.098;2022-09-01T05:41:25;11.70;;;2.67;;
66421;SDS011;53228;51.380;0.098;2022-09-01T05:43:53;7.88;;;2.28;;
66421;SDS011;53228;51.380;0.098;2022-09-01T05:46:26;5.28;;;1.90;;
66421;SDS011;53228;51.380;0.098;2022-09-01T05:48:56;5.45;;;1.70;;
66421;SDS011;53228;51.380;0.098;2022-09-01T05:51:25;8.32;;;1.77;;
66421;SDS011;53228;51.380;0.098;2022-09-01T05:54:12;6.30;;;1.80;;
66421;SDS011;53228;51.380;0.098;2022-09-01T05:56:41;7.60;;;2.13;;
66421;SDS011;53228;51.380;0.098;2022-09-01T05:59:14;4.75;;;1.90;;
66421;SDS011;53228;51.380;0.098;2022-09-01T06:01:56;4.88;;;2.05;;
66421;SDS011;53228;51.380;0.098;2022-09-01T06:04:25;11.50;;;2.22;;
66421;SDS011;53228;51.380;0.098;2022-09-01T06:07:00;8.45;;;2.17;;
66421;SDS011;53228;51.380;0.098;2022-09-01T06:09:38;5.10;;;1.83;;
66421;SDS011;53228;51.380;0.098;2022-09-01T06:12:09;10.00;;;2.30;;
66421;SDS011;53228;51.380;0.098;2022-09-01T06:14:45;10.15;;;2.22;;
66421;SDS011;53228;51.380;0.098;2022-09-01T06:17:18;2.92;;;1.80;;
66421;SDS011;53228;51.380;0.098;2022-09-01T06:19:52;7.32;;;2.38;;
66421;SDS011;53228;51.380;0.098;2022-09-01T06:22:25;8.30;;;1.77;;
66421;SDS011;53228;51.380;0.098;2022-09-01T06:24:56;3.08;;;2.03;;
66421;SDS011;53228;51.380;0.098;2022-09-01T06:27:34;3.47;;;1.70;;
66421;SDS011;53228;51.380;0.098;2022-09-01T06:30:08;10.43;;;2.10;;
66421;SDS011;53228;51.380;0.098;2022-09-01T06:33:07;13.43;;;2.30;;
66421;SDS011;53228;51.380;0.098;2022-09-01T06:35:39;3.50;;;1.52;;
66421;SDS011;53228;51.380;0.098;2022-09-01T06:38:08;13.02;;;2.33;;
66421;SDS011;53228;51.380;0.098;2022-09-01T06:40:41;6.63;;;1.98;;
66421;SDS011;53228;51.380;0.098;2022-09-01T06:43:11;9.18;;;1.63;;
66421;SDS011;53228;51.380;0.098;2022-09-01T06:45:47;7.20;;;1.92;;
66421;SDS011;53228;51.380;0.098;2022-09-01T06:48:25;5.03;;;1.58;;
66421;SDS011;53228;51.380;0.098;2022-09-01T06:51:02;6.03;;;2.03;;
66421;SDS011;53228;51.380;0.098;2022-09-01T06:53:53;4.65;;;1.55;;
66421;SDS011;53228;51.380;0.098;2022-09-01T06:56:46;5.82;;;1.92;;
66421;SDS011;53228;51.380;0.098;2022-09-01T06:59:34;6.75;;;1.95;;
66421;SDS011;53228;51.380;0.098;2022-09-01T07:02:04;7.55;;;1.85;;
66421;SDS011;53228;51.380;0.098;2022-09-01T07:05:01;8.30;;;1.77;;
66421;SDS011;53228;51.380;0.098;2022-09-01T07:07:29;9.05;;;1.52;;
66421;SDS011;53228;51.380;0.098;2022-09-01T07:10:46;14.82;;;2.28;;
66421;SDS011;53228;51.380;0.098;2022-09-01T07:13:36;4.53;;;1.67;;
66421;SDS011;53228;51.380;0.098;2022-09-01T07:16:25;8.40;;;1.80;;
66421;SDS011;53228;51.380;0.098;2022-09-01T07:19:14;4.38;;;1.58;;
66421;SDS011;53228;51.380;0.098;2022-09-01T07:21:49;5.43;;;1.52;;
66421;SDS011;53228;51.380;0.098;2022-09-01T07:24:35;8.05;;;1.63;;
66421;SDS011;53228;51.380;0.098;2022-09-01T07:27:21;13.35;;;2.03;;
66421;SDS011;53228;51.380;0.098;2022-09-01T07:30:02;6.43;;;1.73;;
66421;SDS011;53228;51.380;0.098;2022-09-01T07:32:30;4.10;;;1.55;;
66421;SDS011;53228;51.380;0.098;2022-09-01T07:35:17;7.43;;;2.13;;
66421;SDS011;53228;51.380;0.098;2022-09-01T07:37:48;7.15;;;1.40;;
66421;SDS011;53228;51.380;0.098;2022-09-01T07:40:39;6.70;;;1.85;;
66421;SDS011;53228;51.380;0.098;2022-09-01T07:43:51;11.73;;;1.77;;
66421;SDS011;53228;51.380;0.098;2022-09-01T07:46:40;6.78;;;1.60;;
66421;SDS011;53228;51.380;0.098;2022-09-01T07:49:14;3.47;;;1.83;;
66421;SDS011;53228;51.380;0.098;2022-09-01T07:52:03;6.82;;;1.48;;
66421;SDS011;53228;51.380;0.098;2022-09-01T07:54:31;7.70;;;2.72;;
66421;SDS011;53228;51.380;0.098;2022-09-01T07:57:02;8.50;;;1.85;;
66421;SDS011;53228;51.380;0.098;2022-09-01T07:59:33;6.30;;;1.58;;
66421;SDS011;53228;51.380;0.098;2022-09-01T08:02:13;8.40;;;1.42;;
66421;SDS011;53228;51.380;0.098;2022-09-01T08:04:45;4.18;;;1.48;;
66421;SDS011;53228;51.380;0.098;2022-09-01T08:07:14;4.45;;;1.23;;
66421;SDS011;53228;51.380;0.098;2022-09-01T08:09:43;6.72;;;1.30;;
66421;SDS011;53228;51.380;0.098;2022-09-01T08:12:12;10.85;;;1.50;;
66421;SDS011;53228;51.380;0.098;2022-09-01T08:14:50;8.95;;;1.35;;
66421;SDS011;53228;51.380;0.098;2022-09-01T08:17:40;4.53;;;1.67;;
66421;SDS011;53228;51.380;0.098;2022-09-01T08:20:27;11.02;;;1.70;;
66421;SDS011;53228;51.380;0.098;2022-09-01T08:23:18;4.75;;;1.50;;
66421;SDS011;53228;51.380;0.098;2022-09-01T08:25:47;6.32;;;1.25;;
66421;SDS011;53228;51.380;0.098;2022-09-01T08:28:16;6.00;;;1.70;;
66421;SDS011;53228;51.380;0.098;2022-09-01T08:30:53;10.15;;;2.08;;
66421;SDS011;53228;51.380;0.098;2022-09-01T08:35:52;4.60;;;1.23;;
66421;SDS011;53228;51.380;0.098;2022-09-01T08:38:21;7.30;;;1.48;;
66421;SDS011;53228;51.380;0.098;2022-09-01T08:40:50;6.30;;;1.30;;
66421;SDS011;53228;51.380;0.098;2022-09-01T08:43:37;9.65;;;1.70;;
66421;SDS011;53228;51.380;0.098;2022-09-01T08:46:33;4.55;;;1.27;;
66421;SDS011;53228;51.380;0.098;2022-09-01T08:49:13;7.38;;;2.10;;
66421;SDS011;53228;51.380;0.098;2022-09-01T08:52:30;5.47;;;1.58;;
66421;SDS011;53228;51.380;0.098;2022-09-01T08:57:53;3.00;;;1.23;;
66421;SDS011;53228;51.380;0.098;2022-09-01T09:00:27;5.20;;;1.45;;
66421;SDS011;53228;51.380;0.098;2022-09-01T09:03:26;6.15;;;1.70;;
66421;SDS011;53228;51.380;0.098;2022-09-01T09:17:02;4.57;;;1.35;;
66421;SDS011;53228;51.380;0.098;2022-09-01T09:19:35;7.32;;;1.60;;
66421;SDS011;53228;51.380;0.098;2022-09-01T09:27:33;15.00;;;1.52;;
66421;SDS011;53228;51.380;0.098;2022-09-01T09:30:05;3.45;;;1.13;;
66421;SDS011;53228;51.380;0.098;2022-09-01T09:35:38;7.80;;;1.48;;
66421;SDS011;53228;51.380;0.098;2022-09-01T09:40:55;3.83;;;1.65;;
66421;SDS011;53228;51.380;0.098;2022-09-01T09:44:11;9.45;;;1.73;;
66421;SDS011;53228;51.380;0.098;2022-09-01T09:46:41;6.07;;;1.33;;
66421;SDS011;53228;51.380;0.098;2022-09-01T09:54:35;14.23;;;2.30;;
66421;SDS011;53228;51.380;0.098;2022-09-01T09:57:26;4.25;;;1.52;;
66421;SDS011;53228;51.380;0.098;2022-09-01T09:59:58;4.43;;;1.40;;
66421;SDS011;53228;51.380;0.098;2022-09-01T10:02:42;3.38;;;1.40;;
66421;SDS011;53228;51.380;0.098;2022-09-01T10:05:32;5.78;;;1.35;;
66421;SDS011;53228;51.380;0.098;2022-09-01T10:08:07;7.63;;;1.60;;
66421;SDS011;53228;51.380;0.098;2022-09-01T10:10:45;6.57;;;1.65;;
66421;SDS011;53228;51.380;0.098;2022-09-01T10:13:24;5.65;;;1.60;;
66421;SDS011;53228;51.380;0.098;2022-09-01T10:15:59;8.10;;;1.70;;
66421;SDS011;53228;51.380;0.098;2022-09-01T10:18:33;7.45;;;1.40;;
66421;SDS011;53228;51.380;0.098;2022-09-01T10:21:20;3.20;;;1.27;;
66421;SDS011;53228;51.380;0.098;2022-09-01T10:26:59;9.13;;;1.80;;
66421;SDS011;53228;51.380;0.098;2022-09-01T10:29:47;6.40;;;1.90;;
66421;SDS011;53228;51.380;0.098;2022-09-01T10:32:54;5.93;;;1.45;;
66421;SDS011;53228;51.380;0.098;2022-09-01T10:35:43;4.57;;;1.13;;
66421;SDS011;53228;51.380;0.098;2022-09-01T10:38:25;4.20;;;1.15;;
66421;SDS011;53228;51.380;0.098;2022-09-01T10:41:00;3.70;;;1.25;;
66421;SDS011;53228;51.380;0.098;2022-09-01T10:43:44;8.07;;;1.38;;
66421;SDS011;53228;51.380;0.098;2022-09-01T10:48:54;3.58;;;1.30;;
66421;SDS011;53228;51.380;0.098;2022-09-01T10:54:59;8.38;;;1.40;;
66421;SDS011;53228;51.380;0.098;2022-09-01T11:06:04;8.40;;;1.40;;
66421;SDS011;53228;51.380;0.098;2022-09-01T11:08:45;6.53;;;1.35;;
66421;SDS011;53228;51.380;0.098;2022-09-01T11:13:56;3.08;;;1.30;;
66421;SDS011;53228;51.380;0.098;2022-09-01T11:22:01;3.38;;;1.20;;
66421;SDS011;53228;51.380;0.098;2022-09-01T11:30:21;5.25;;;1.67;;
66421;SDS011;53228;51.380;0.098;2022-09-01T11:33:42;11.27;;;1.10;;
66421;SDS011;53228;51.380;0.098;2022-09-01T11:38:52;5.32;;;1.75;;
66421;SDS011;53228;51.380;0.098;2022-09-01T11:41:53;5.03;;;1.98;;
66421;SDS011;53228;51.380;0.098;2022-09-01T11:44:35;4.38;;;1.88;;
66421;SDS011;53228;51.380;0.098;2022-09-01T11:47:19;2.00;;;1.38;;
66421;SDS011;53228;51.380;0.098;2022-09-01T11:49:54;6.43;;;2.55;;
66421;SDS011;53228;51.380;0.098;2022-09-01T11:52:28;6.05;;;1.98;;
66421;SDS011;53228;51.380;0.098;2022-09-01T11:54:58;7.70;;;1.98;;
66421;SDS011;53228;51.380;0.098;2022-09-01T11:57:28;4.68;;;1.65;;
66421;SDS011;53228;51.380;0.098;2022-09-01T11:59:59;7.57;;;1.70;;
66421;SDS011;53228;51.380;0.098;2022-09-01T12:02:46;5.72;;;1.80;;
66421;SDS011;53228;51.380;0.098;2022-09-01T12:07:52;6.45;;;1.25;;
66421;SDS011;53228;51.380;0.098;2022-09-01T12:10:29;9.32;;;1.67;;
66421;SDS011;53228;51.380;0.098;2022-09-01T12:13:08;5.55;;;1.67;;
66421;SDS011;53228;51.380;0.098;2022-09-01T12:15:55;6.80;;;1.85;;
66421;SDS011;53228;51.380;0.098;2022-09-01T12:18:50;7.88;;;1.40;;
66421;SDS011;53228;51.380;0.098;2022-09-01T12:21:21;3.20;;;1.50;;
66421;SDS011;53228;51.380;0.098;2022-09-01T12:24:14;3.42;;;1.55;;
66421;SDS011;53228;51.380;0.098;2022-09-01T12:26:50;9.10;;;1.88;;
66421;SDS011;53228;51.380;0.098;2022-09-01T12:29:20;2.88;;;1.70;;
66421;SDS011;53228;51.380;0.098;2022-09-01T12:31:49;3.30;;;1.52;;
66421;SDS011;53228;51.380;0.098;2022-09-01T12:34:35;3.42;;;1.25;;
66421;SDS011;53228;51.380;0.098;2022-09-01T12:39:43;4.95;;;1.23;;
66421;SDS011;53228;51.380;0.098;2022-09-01T12:42:22;8.73;;;1.83;;
66421;SDS011;53228;51.380;0.098;2022-09-01T12:45:08;2.78;;;1.05;;
66421;SDS011;53228;51.380;0.098;2022-09-01T12:52:54;5.35;;;1.55;;
66421;SDS011;53228;51.380;0.098;2022-09-01T12:55:31;7.18;;;1.40;;
66421;SDS011;53228;51.380;0.098;2022-09-01T12:58:20;5.90;;;1.60;;
66421;SDS011;53228;51.380;0.098;2022-09-01T13:00:57;4.07;;;1.80;;
66421;SDS011;53228;51.380;0.098;2022-09-01T13:03:42;2.63;;;1.38;;
66421;SDS011;53228;51.380;0.098;2022-09-01T13:06:59;6.78;;;1.60;;
66421;SDS011;53228;51.380;0.098;2022-09-01T13:09:29;3.75;;;1.20;;
66421;SDS011;53228;51.380;0.098;2022-09-01T13:12:16;3.70;;;1.55;;
66421;SDS011;53228;51.380;0.098;2022-09-01T13:14:47;5.20;;;1.63;;
66421;SDS011;53228;51.380;0.098;2022-09-01T13:17:15;7.95;;;1.73;;
66421;SDS011;53228;51.380;0.098;2022-09-01T13:19:43;4.88;;;1.60;;
66421;SDS011;53228;51.380;0.098;2022-09-01T13:22:12;3.88;;;1.42;;
66421;SDS011;53228;51.380;0.098;2022-09-01T13:24:41;4.07;;;1.90;;
66421;SDS011;53228;51.380;0.098;2022-09-01T13:27:09;6.07;;;1.80;;
66421;SDS011;53228;51.380;0.098;2022-09-01T13:29:47;4.13;;;1.50;;
66421;SDS011;53228;51.380;0.098;2022-09-01T13:34:50;7.32;;;1.70;;
66421;SDS011;53228;51.380;0.098;2022-09-01T13:37:21;6.07;;;1.50;;
66421;SDS011;53228;51.380;0.098;2022-09-01T13:39:49;5.18;;;1.50;;
66421;SDS011;53228;51.380;0.098;2022-09-01T13:42:18;5.93;;;1.65;;
66421;SDS011;53228;51.380;0.098;2022-09-01T13:44:47;9.23;;;1.95;;
66421;SDS011;53228;51.380;0.098;2022-09-01T13:47:20;3.05;;;1.60;;
66421;SDS011;53228;51.380;0.098;2022-09-01T13:49:58;10.75;;;1.60;;
66421;SDS011;53228;51.380;0.098;2022-09-01T13:52:41;3.03;;;2.00;;
66421;SDS011;53228;51.380;0.098;2022-09-01T13:55:23;3.55;;;1.70;;
66421;SDS011;53228;51.380;0.098;2022-09-01T13:57:53;6.72;;;2.15;;
66421;SDS011;53228;51.380;0.098;2022-09-01T14:00:22;5.07;;;2.00;;
66421;SDS011;53228;51.380;0.098;2022-09-01T14:02:56;2.90;;;2.03;;
66421;SDS011;53228;51.380;0.098;2022-09-01T14:05:31;7.53;;;2.17;;
66421;SDS011;53228;51.380;0.098;2022-09-01T14:08:00;2.85;;;2.20;;
66421;SDS011;53228;51.380;0.098;2022-09-01T14:10:32;3.78;;;1.83;;
66421;SDS011;53228;51.380;0.098;2022-09-01T14:13:01;3.22;;;2.22;;
66421;SDS011;53228;51.380;0.098;2022-09-01T14:15:30;2.85;;;2.15;;
66421;SDS011;53228;51.380;0.098;2022-09-01T14:17:58;3.35;;;2.20;;
66421;SDS011;53228;51.380;0.098;2022-09-01T14:20:28;9.32;;;2.42;;
66421;SDS011;53228;51.380;0.098;2022-09-01T14:23:02;3.13;;;2.47;;
66421;SDS011;53228;51.380;0.098;2022-09-01T14:25:31;3.65;;;2.25;;
66421;SDS011;53228;51.380;0.098;2022-09-01T14:27:59;4.70;;;2.55;;
66421;SDS011;53228;51.380;0.098;2022-09-01T14:30:30;5.45;;;2.45;;
66421;SDS011;53228;51.380;0.098;2022-09-01T14:35:27;4.20;;;2.58;;
66421;SDS011;53228;51.380;0.098;2022-09-01T14:38:00;3.42;;;2.38;;
66421;SDS011;53228;51.380;0.098;2022-09-01T14:40:32;4.10;;;2.65;;
66421;SDS011;53228;51.380;0.098;2022-09-01T14:43:04;4.03;;;2.22;;
66421;SDS011;53228;51.380;0.098;2022-09-01T14:45:35;5.85;;;2.47;;
66421;SDS011;53228;51.380;0.098;2022-09-01T14:48:04;3.28;;;2.47;;
66421;SDS011;53228;51.380;0.098;2022-09-01T14:50:33;2.60;;;2.40;;
66421;SDS011;53228;51.380;0.098;2022-09-01T14:53:01;4.28;;;2.67;;
66421;SDS011;53228;51.380;0.098;2022-09-01T14:55:30;4.53;;;2.53;;
66421;SDS011;53228;51.380;0.098;2022-09-01T14:57:59;3.22;;;2.58;;
66421;SDS011;53228;51.380;0.098;2022-09-01T15:00:27;3.35;;;2.10;;
66421;SDS011;53228;51.380;0.098;2022-09-01T15:02:56;5.40;;;3.05;;
66421;SDS011;53228;51.380;0.098;2022-09-01T15:05:24;2.92;;;2.10;;
66421;SDS011;53228;51.380;0.098;2022-09-01T15:07:52;7.50;;;3.03;;
66421;SDS011;53228;51.380;0.098;2022-09-01T15:10:22;3.28;;;2.97;;
66421;SDS011;53228;51.380;0.098;2022-09-01T15:12:54;7.78;;;2.85;;
66421;SDS011;53228;51.380;0.098;2022-09-01T15:15:23;3.30;;;2.58;;
66421;SDS011;53228;51.380;0.098;2022-09-01T15:17:53;7.63;;;2.85;;
66421;SDS011;53228;51.380;0.098;2022-09-01T15:20:22;4.50;;;2.90;;
66421;SDS011;53228;51.380;0.098;2022-09-01T15:23:10;2.75;;;2.40;;
66421;SDS011;53228;51.380;0.098;2022-09-01T15:25:56;3.75;;;2.30;;
66421;SDS011;53228;51.380;0.098;2022-09-01T15:28:24;3.72;;;3.03;;
66421;SDS011;53228;51.380;0.098;2022-09-01T15:30:53;2.63;;;2.40;;
66421;SDS011;53228;51.380;0.098;2022-09-01T15:33:23;3.00;;;2.65;;
66421;SDS011;53228;51.380;0.098;2022-09-01T15:35:50;5.82;;;2.95;;
66421;SDS011;53228;51.380;0.098;2022-09-01T15:38:20;3.47;;;2.30;;
66421;SDS011;53228;51.380;0.098;2022-09-01T15:40:54;4.28;;;2.65;;
66421;SDS011;53228;51.380;0.098;2022-09-01T15:43:25;6.55;;;3.03;;
66421;SDS011;53228;51.380;0.098;2022-09-01T15:45:54;9.27;;;3.22;;
66421;SDS011;53228;51.380;0.098;2022-09-01T15:48:25;4.38;;;2.63;;
66421;SDS011;53228;51.380;0.098;2022-09-01T15:50:57;3.10;;;2.25;;
66421;SDS011;53228;51.380;0.098;2022-09-01T15:53:55;5.20;;;2.70;;
66421;SDS011;53228;51.380;0.098;2022-09-01T15:56:25;5.70;;;2.65;;
66421;SDS011;53228;51.380;0.098;2022-09-01T15:58:53;3.85;;;2.35;;
66421;SDS011;53228;51.380;0.098;2022-09-01T16:01:29;3.38;;;2.70;;
66421;SDS011;53228;51.380;0.098;2022-09-01T16:04:00;4.35;;;2.70;;
66421;SDS011;53228;51.380;0.098;2022-09-01T16:06:29;5.78;;;2.70;;
66421;SDS011;53228;51.380;0.098;2022-09-01T16:08:57;9.27;;;2.80;;
66421;SDS011;53228;51.380;0.098;2022-09-01T16:11:25;4.65;;;2.67;;
66421;SDS011;53228;51.380;0.098;2022-09-01T16:13:54;7.75;;;2.55;;
66421;SDS011;53228;51.380;0.098;2022-09-01T16:19:19;4.75;;;2.72;;
66421;SDS011;53228;51.380;0.098;2022-09-01T16:24:44;4.28;;;2.60;;
66421;SDS011;53228;51.380;0.098;2022-09-01T16:27:16;4.93;;;3.30;;
66421;SDS011;53228;51.380;0.098;2022-09-01T16:29:48;3.78;;;3.10;;
66421;SDS011;53228;51.380;0.098;2022-09-01T16:32:21;6.22;;;3.22;;
66421;SDS011;53228;51.380;0.098;2022-09-01T16:34:50;4.07;;;3.00;;
66421;SDS011;53228;51.380;0.098;2022-09-01T16:51:36;5.30;;;3.75;;
66421;SDS011;53228;51.380;0.098;2022-09-01T16:54:37;8.27;;;3.90;;
66421;SDS011;53228;51.380;0.098;2022-09-01T16:57:31;8.27;;;3.85;;
66421;SDS011;53228;51.380;0.098;2022-09-01T17:00:09;4.70;;;3.28;;
66421;SDS011;53228;51.380;0.098;2022-09-01T17:08:50;6.43;;;3.80;;
66421;SDS011;53228;51.380;0.098;2022-09-01T17:11:23;10.45;;;3.65;;
66421;SDS011;53228;51.380;0.098;2022-09-01T17:13:58;11.23;;;4.00;;
66421;SDS011;53228;51.380;0.098;2022-09-01T17:16:31;6.55;;;4.07;;
66421;SDS011;53228;51.380;0.098;2022-09-01T17:19:06;8.07;;;5.22;;
66421;SDS011;53228;51.380;0.098;2022-09-01T17:21:40;8.30;;;4.43;;
66421;SDS011;53228;51.380;0.098;2022-09-01T17:24:32;9.60;;;4.75;;
66421;SDS011;53228;51.380;0.098;2022-09-01T17:27:19;13.02;;;5.22;;
66421;SDS011;53228;51.380;0.098;2022-09-01T17:30:26;10.15;;;4.90;;
66421;SDS011;53228;51.380;0.098;2022-09-01T17:38:39;7.90;;;4.50;;
66421;SDS011;53228;51.380;0.098;2022-09-01T17:44:25;8.63;;;4.93;;